Time;durP1;ratioP1;P1;durP2;ratioP2;P2;SDS_P1;SDS_P2;PMS_P1;PMS_P2;Temp;Humidity;BMP_temperature;BMP_pressure;BME280_temperature;BME280_humidity;BME280_pressure;Samples;Min_cycle;Max_cycle;Signal;HPM_P1;HPM_P2
2023/10/10 00:02:18;;;;;;;4.63;2.90;;;;;;;14.53;100.00;101294.06;5075851;28;20221;-73
2023/10/10 00:04:47;;;;;;;6.77;3.40;;;;;;;14.48;100.00;101295.59;5075667;28;20312;-73
2023/10/10 00:07:16;;;;;;;7.83;3.30;;;;;;;14.52;100.00;101303.16;5075378;28;20320;-74
2023/10/10 00:09:46;;;;;;;6.97;3.40;;;;;;;14.51;100.00;101308.72;5075688;28;20237;-73
2023/10/10 00:12:25;;;;;;;5.83;3.13;;;;;;;14.48;100.00;101296.47;5075626;28;20231;-73
2023/10/10 00:14:57;;;;;;;4.80;2.97;;;;;;;14.50;100.00;101294.41;5075572;28;20221;-73
2023/10/10 00:17:34;;;;;;;9.90;3.60;;;;;;;14.51;100.00;101296.09;5075275;28;20228;-73
2023/10/10 00:20:16;;;;;;;6.73;3.17;;;;;;;14.52;100.00;101302.34;5075535;28;20264;-73
2023/10/10 00:22:47;;;;;;;6.30;3.43;;;;;;;14.53;100.00;101304.84;5075404;28;20240;-73
2023/10/10 00:25:19;;;;;;;5.97;3.43;;;;;;;14.52;100.00;101305.03;5075359;28;20240;-73
2023/10/10 00:27:48;;;;;;;7.57;4.10;;;;;;;14.54;100.00;101303.00;5075287;28;20217;-73
2023/10/10 00:30:16;;;;;;;9.90;3.73;;;;;;;14.49;100.00;101294.56;5074946;28;20259;-73
2023/10/10 00:32:46;;;;;;;10.53;3.70;;;;;;;14.52;100.00;101287.00;5075233;28;20205;-73
2023/10/10 00:35:17;;;;;;;7.27;4.00;;;;;;;14.47;100.00;101289.38;5074775;28;20707;-73
2023/10/10 00:37:47;;;;;;;12.97;4.20;;;;;;;14.49;100.00;101289.19;5075169;28;20222;-74
2023/10/10 00:40:29;;;;;;;6.43;3.93;;;;;;;14.46;100.00;101281.44;5075059;28;20240;-74
2023/10/10 00:42:59;;;;;;;11.87;4.63;;;;;;;14.46;100.00;101289.53;5075032;28;20267;-74
2023/10/10 00:45:33;;;;;;;7.17;4.50;;;;;;;14.45;100.00;101291.38;5074916;28;20233;-74
2023/10/10 00:48:02;;;;;;;8.97;4.60;;;;;;;14.38;100.00;101274.25;5074855;28;20240;-74
2023/10/10 00:50:34;;;;;;;8.23;3.97;;;;;;;14.37;100.00;101277.94;5074867;28;20205;-74
2023/10/10 00:53:04;;;;;;;5.63;3.90;;;;;;;14.36;100.00;101270.88;5074833;28;20197;-74
2023/10/10 00:55:36;;;;;;;9.23;4.67;;;;;;;14.35;100.00;101269.19;5074722;28;20230;-74
2023/10/10 00:58:07;;;;;;;7.67;4.20;;;;;;;14.34;100.00;101278.31;5074753;28;20194;-74
2023/10/10 01:00:42;;;;;;;7.80;3.60;;;;;;;14.36;100.00;101278.09;5074699;28;20189;-74
2023/10/10 01:03:20;;;;;;;12.47;4.50;;;;;;;14.38;100.00;101278.78;5074640;28;20618;-74
2023/10/10 01:05:53;;;;;;;7.07;3.77;;;;;;;14.38;100.00;101279.66;5074820;28;20229;-74
2023/10/10 01:08:26;;;;;;;4.93;3.63;;;;;;;14.38;100.00;101268.88;5074474;28;20296;-74
2023/10/10 01:11:02;;;;;;;8.77;3.97;;;;;;;14.37;100.00;101275.25;5074482;28;20221;-74
2023/10/10 01:13:31;;;;;;;6.90;3.70;;;;;;;14.40;100.00;101274.91;5074037;28;20280;-73
2023/10/10 01:16:04;;;;;;;6.53;3.63;;;;;;;14.39;100.00;101275.91;5074401;28;20240;-74
2023/10/10 01:18:39;;;;;;;6.77;3.60;;;;;;;14.38;100.00;101281.50;5074559;28;20225;-74
2023/10/10 01:21:09;;;;;;;7.43;3.70;;;;;;;14.36;100.00;101278.94;5073929;28;20248;-74
2023/10/10 01:23:37;;;;;;;7.10;4.00;;;;;;;14.37;100.00;101279.81;5074168;28;20232;-74
2023/10/10 01:26:06;;;;;;;6.17;3.50;;;;;;;14.38;100.00;101279.66;5074185;28;20296;-74
2023/10/10 01:28:35;;;;;;;8.90;3.97;;;;;;;14.38;100.00;101271.56;5074061;28;20240;-74
2023/10/10 01:31:10;;;;;;;13.17;4.23;;;;;;;14.34;100.00;101264.84;5074089;28;20208;-74
2023/10/10 01:33:44;;;;;;;7.53;3.70;;;;;;;14.37;100.00;101261.78;5074003;28;20587;-74
2023/10/10 01:36:19;;;;;;;7.57;4.27;;;;;;;14.36;100.00;101260.09;5073718;28;20644;-74
2023/10/10 01:39:19;;;;;;;6.50;4.07;;;;;;;14.35;100.00;101258.41;5074014;28;20209;-74
2023/10/10 01:41:49;;;;;;;13.50;4.50;;;;;;;14.36;100.00;101267.34;5073897;28;20290;-74
2023/10/10 01:44:23;;;;;;;7.00;4.13;;;;;;;14.35;100.00;101266.50;5074096;28;20268;-74
2023/10/10 01:46:52;;;;;;;7.13;4.10;;;;;;;14.33;100.00;101265.81;5073770;28;20197;-74
2023/10/10 01:49:25;;;;;;;7.33;3.90;;;;;;;14.34;100.00;101261.28;5073807;28;20209;-74
2023/10/10 01:51:55;;;;;;;10.37;4.37;;;;;;;14.32;100.00;101264.09;5073503;28;20735;-74
2023/10/10 01:54:34;;;;;;;6.07;4.17;;;;;;;14.35;100.00;101261.09;5073721;28;20317;-74
2023/10/10 01:57:09;;;;;;;8.47;4.83;;;;;;;14.33;100.00;101252.34;5073741;28;20262;-74
2023/10/10 01:59:38;;;;;;;6.57;4.20;;;;;;;14.33;100.00;101244.25;5073683;28;20189;-74
2023/10/10 02:02:11;;;;;;;7.97;4.33;;;;;;;14.31;100.00;101240.91;5073373;28;20205;-74
2023/10/10 02:04:41;;;;;;;12.57;4.50;;;;;;;14.32;100.00;101245.25;5073550;28;20229;-74
2023/10/10 02:07:22;;;;;;;10.17;4.27;;;;;;;14.33;100.00;101248.78;5073493;28;20213;-74
2023/10/10 02:10:09;;;;;;;7.00;3.90;;;;;;;14.32;100.00;101247.94;5073574;28;20189;-74
2023/10/10 02:12:44;;;;;;;5.47;3.80;;;;;;;14.31;100.00;101248.97;5073205;28;20675;-74
2023/10/10 02:15:18;;;;;;;6.80;3.77;;;;;;;14.25;100.00;101246.13;5073474;28;20225;-74
2023/10/10 02:17:51;;;;;;;5.17;3.50;;;;;;;14.28;100.00;101252.00;5073312;28;20182;-74
2023/10/10 02:20:33;;;;;;;5.67;3.93;;;;;;;14.29;100.00;101242.06;5073465;28;20194;-74
2023/10/10 02:23:23;;;;;;;8.60;3.70;;;;;;;14.25;100.00;101252.34;5073553;28;20258;-74
2023/10/10 02:25:54;;;;;;;8.27;3.77;;;;;;;14.23;100.00;101246.31;5073662;28;20198;-74
2023/10/10 02:28:42;;;;;;;7.03;3.43;;;;;;;14.26;100.00;101243.25;5073538;28;20304;-74
2023/10/10 02:31:15;;;;;;;7.63;3.90;;;;;;;14.22;100.00;101244.59;5073048;28;20641;-74
2023/10/10 02:33:55;;;;;;;7.43;3.50;;;;;;;14.22;100.00;101247.31;5073151;28;20189;-74
2023/10/10 02:36:31;;;;;;;7.47;3.70;;;;;;;14.23;100.00;101249.00;5073331;28;20201;-74
2023/10/10 02:39:18;;;;;;;7.43;4.00;;;;;;;14.25;100.00;101263.13;5073335;28;20193;-74
2023/10/10 02:41:52;;;;;;;8.47;4.17;;;;;;;14.24;100.00;101250.69;5073010;28;20186;-74
2023/10/10 02:47:08;;;;;;;7.47;4.30;;;;;;;14.22;100.00;101252.69;5072916;28;20585;-74
2023/10/10 02:49:38;;;;;;;7.87;3.70;;;;;;;14.19;100.00;101253.88;5073121;28;20209;-74
2023/10/10 02:52:14;;;;;;;5.97;3.63;;;;;;;14.18;100.00;101259.41;5073127;28;20213;-74
2023/10/10 02:54:53;;;;;;;7.90;4.03;;;;;;;14.17;100.00;101265.84;5073064;28;20225;-74
2023/10/10 02:57:28;;;;;;;5.97;3.70;;;;;;;14.16;100.00;101274.91;5073155;28;20268;-74
2023/10/10 03:00:15;;;;;;;7.63;3.70;;;;;;;14.20;100.00;101271.72;5073155;28;20190;-74
2023/10/10 03:02:53;;;;;;;7.60;3.80;;;;;;;14.13;100.00;101265.34;5073104;28;20194;-74
2023/10/10 03:08:12;;;;;;;7.70;4.17;;;;;;;14.17;100.00;101263.16;5073606;28;20225;-74
2023/10/10 03:10:46;;;;;;;9.37;4.00;;;;;;;14.18;100.00;101270.19;5072781;28;20698;-74
2023/10/10 03:13:27;;;;;;;9.33;4.13;;;;;;;14.17;100.00;101266.69;5073828;28;20276;-74
2023/10/10 03:16:10;;;;;;;6.63;4.30;;;;;;;14.16;100.00;101264.16;5072971;28;20272;-74
2023/10/10 03:18:52;;;;;;;7.57;4.43;;;;;;;14.17;100.00;101257.75;5072916;28;20190;-74
2023/10/10 03:21:36;;;;;;;11.03;4.50;;;;;;;14.18;100.00;101251.34;5072732;28;20217;-74
2023/10/10 03:24:07;;;;;;;7.70;3.83;;;;;;;14.19;100.00;101259.25;5072797;28;20222;-74
2023/10/10 03:29:36;;;;;;;7.60;4.40;;;;;;;14.18;100.00;101262.97;5073686;28;20311;-74
2023/10/10 03:32:25;;;;;;;10.00;4.50;;;;;;;14.18;100.00;101256.72;5076120;28;20221;-74
2023/10/10 03:34:57;;;;;;;8.43;5.03;;;;;;;14.20;100.00;101254.72;5076301;28;20261;-74
2023/10/10 03:37:30;;;;;;;10.30;5.27;;;;;;;14.18;100.00;101256.72;5076332;28;20186;-74
2023/10/10 03:40:10;;;;;;;6.53;4.53;;;;;;;14.21;100.00;101246.47;5075976;28;20675;-74
2023/10/10 05:25:55;;;;;;;10.80;4.93;;;;;;;14.16;100.00;101223.75;5074255;28;20197;-74
2023/10/10 05:28:29;;;;;;;11.20;5.33;;;;;;;14.17;100.00;101230.84;5073762;28;20649;-74
2023/10/10 05:30:58;;;;;;;10.30;5.07;;;;;;;14.18;100.00;101233.34;5074168;28;20192;-74
2023/10/10 05:33:27;;;;;;;7.57;5.00;;;;;;;14.20;100.00;101243.94;5073966;28;20637;-74
2023/10/10 05:35:59;;;;;;;9.90;5.00;;;;;;;14.22;100.00;101250.00;5073698;28;20589;-74
2023/10/10 05:38:30;;;;;;;8.60;4.60;;;;;;;14.22;100.00;101256.22;5073905;28;20663;-74
2023/10/10 05:41:02;;;;;;;9.80;4.33;;;;;;;14.20;100.00;101254.72;5073678;28;20185;-74
2023/10/10 05:43:33;;;;;;;7.50;4.50;;;;;;;14.21;100.00;101251.03;5073869;28;20190;-74
2023/10/10 05:46:04;;;;;;;6.40;4.30;;;;;;;14.20;100.00;101250.19;5073885;28;20251;-74
2023/10/10 05:48:35;;;;;;;7.17;4.20;;;;;;;14.24;100.00;101245.28;5073948;28;20250;-74
2023/10/10 05:51:04;;;;;;;11.10;4.40;;;;;;;14.20;100.00;101244.81;5073816;28;20194;-74
2023/10/10 05:53:34;;;;;;;8.57;4.40;;;;;;;14.22;100.00;101245.44;5073023;28;20679;-74
2023/10/10 05:56:12;;;;;;;8.63;4.73;;;;;;;14.20;100.00;101238.56;5073734;28;20233;-74
2023/10/10 05:58:47;;;;;;;7.93;4.23;;;;;;;14.24;100.00;101242.59;5073454;28;20352;-74
2023/10/10 06:01:16;;;;;;;7.20;4.37;;;;;;;14.25;100.00;101257.72;5073739;28;20200;-75
2023/10/10 06:03:46;;;;;;;9.10;4.00;;;;;;;14.24;100.00;101258.75;5073379;28;20615;-74
2023/10/10 06:06:18;;;;;;;12.73;4.37;;;;;;;14.25;100.00;101256.91;5073681;28;20241;-74
2023/10/10 06:08:58;;;;;;;12.60;4.23;;;;;;;14.27;100.00;101261.09;5075174;28;20247;-74
2023/10/10 06:11:27;;;;;;;11.63;4.13;;;;;;;14.28;100.00;101254.69;5077522;28;20193;-74
2023/10/10 06:13:56;;;;;;;25.07;5.37;;;;;;;14.30;100.00;101260.75;5076699;28;20575;-74
2023/10/10 06:16:25;;;;;;;10.43;4.07;;;;;;;14.31;100.00;101258.91;5074966;28;20241;-75
2023/10/10 06:18:54;;;;;;;10.97;4.03;;;;;;;14.28;100.00;101254.69;5073558;28;20548;-74
2023/10/10 06:21:22;;;;;;;6.60;3.60;;;;;;;14.31;100.00;101261.59;5073410;28;20260;-75
2023/10/10 06:23:52;;;;;;;6.90;3.47;;;;;;;14.31;100.00;101267.00;5073443;28;20267;-78
2023/10/10 06:26:21;;;;;;;5.60;3.13;;;;;;;14.32;100.00;101274.03;5073181;28;20295;-75
2023/10/10 06:28:53;;;;;;;5.40;3.50;;;;;;;14.33;100.00;101263.09;5073352;28;20229;-75
2023/10/10 06:31:33;;;;;;;7.43;3.50;;;;;;;14.33;100.00;101270.34;5073449;28;20257;-75
2023/10/10 06:34:19;;;;;;;5.10;3.20;;;;;;;14.33;100.00;101260.41;5073415;28;20233;-75
2023/10/10 06:36:49;;;;;;;7.80;3.60;;;;;;;14.34;100.00;101272.06;5073392;28;20189;-75
2023/10/10 06:39:19;;;;;;;6.33;3.53;;;;;;;14.32;100.00;101264.09;5073347;28;20248;-75
2023/10/10 06:41:50;;;;;;;4.63;3.37;;;;;;;14.34;100.00;101270.22;5073364;28;20204;-76
2023/10/10 06:44:34;;;;;;;5.40;3.37;;;;;;;14.36;100.00;101272.72;5073276;28;20235;-75
2023/10/10 06:47:10;;;;;;;7.20;4.17;;;;;;;14.37;100.00;101263.63;5073016;28;20647;-75
2023/10/10 06:49:54;;;;;;;6.67;3.70;;;;;;;14.40;100.00;101269.53;5072933;28;20675;-75
2023/10/10 06:52:27;;;;;;;6.53;4.13;;;;;;;14.43;100.00;101268.34;5073277;28;20193;-75
2023/10/10 06:54:57;;;;;;;6.40;4.37;;;;;;;14.44;100.00;101268.16;5073141;28;20229;-75
2023/10/10 06:57:40;;;;;;;8.07;4.93;;;;;;;14.44;100.00;101262.78;5072823;28;20586;-74
2023/10/10 07:00:27;;;;;;;6.70;5.07;;;;;;;14.45;100.00;101263.63;5073148;28;20196;-74
2023/10/10 07:02:56;;;;;;;5.53;4.27;;;;;;;14.45;100.00;101264.44;5073109;28;20271;-75
2023/10/10 07:05:27;;;;;;;8.17;4.90;;;;;;;14.45;100.00;101264.44;5075914;28;20225;-74
2023/10/10 07:07:59;;;;;;;12.03;5.10;;;;;;;14.47;100.00;101273.22;5076931;28;20197;-75
2023/10/10 07:10:36;;;;;;;10.77;5.57;;;;;;;14.45;100.00;101267.13;5076817;28;20237;-75
2023/10/10 07:13:11;;;;;;;8.37;5.03;;;;;;;14.47;100.00;101267.81;5076804;28;20189;-74
2023/10/10 07:15:41;;;;;;;7.40;5.00;;;;;;;14.50;100.00;101272.88;5076489;28;20220;-75
2023/10/10 07:18:14;;;;;;;7.77;4.93;;;;;;;14.51;100.00;101273.72;5076661;28;20209;-75
2023/10/10 07:23:38;;;;;;;10.00;5.47;;;;;;;14.58;100.00;101278.25;5076547;28;20202;-75
2023/10/10 07:26:20;;;;;;;8.50;4.77;;;;;;;14.58;100.00;101269.31;5076427;28;20197;-75
2023/10/10 07:28:49;;;;;;;6.07;4.47;;;;;;;14.61;100.00;101274.34;5076600;28;20217;-75
2023/10/10 07:31:18;;;;;;;9.50;5.07;;;;;;;14.61;100.00;101280.59;5076356;28;20235;-74
2023/10/10 07:33:54;;;;;;;8.27;4.90;;;;;;;14.61;100.00;101269.81;5076341;28;20206;-74
2023/10/10 07:36:27;;;;;;;9.53;5.57;;;;;;;14.61;100.00;101277.88;5076535;28;20285;-72
2023/10/10 07:41:44;;;;;;;5.83;4.90;;;;;;;14.63;100.00;101273.16;5075983;28;20237;-74
2023/10/10 07:44:16;;;;;;;9.43;5.37;;;;;;;14.66;100.00;101274.66;5076152;28;20229;-74
2023/10/10 07:47:18;;;;;;;8.30;4.77;;;;;;;14.66;100.00;101267.41;5075876;28;20239;-73
2023/10/10 07:49:39;;;;;;;6.73;5.13;;;;;;;14.68;100.00;101270.78;5075631;28;20617;-74
2023/10/10 07:52:16;;;;;;;8.90;4.77;;;;;;;14.69;100.00;101280.53;5076119;28;20194;-74
2023/10/10 07:54:46;;;;;;;8.57;4.70;;;;;;;14.69;100.00;101275.16;5075475;28;20317;-73
2023/10/10 07:57:18;;;;;;;4.93;3.80;;;;;;;14.70;100.00;101263.34;5075904;28;20248;-73
2023/10/10 07:59:47;;;;;;;6.30;4.60;;;;;;;14.71;100.00;101267.75;5075687;28;20640;-73
2023/10/10 08:02:26;;;;;;;7.37;4.53;;;;;;;14.73;100.00;101272.13;5075878;28;20282;-73
2023/10/10 08:04:56;;;;;;;5.10;4.57;;;;;;;14.75;100.00;101270.09;5075891;28;20311;-73
2023/10/10 08:07:26;;;;;;;4.47;4.07;;;;;;;14.75;100.00;101270.94;5075485;28;20273;-73
2023/10/10 08:10:13;;;;;;;7.70;5.10;;;;;;;14.80;100.00;101268.53;5076503;28;20275;-73
2023/10/10 08:12:44;;;;;;;6.43;4.70;;;;;;;14.88;100.00;101262.28;5075727;28;20193;-73
2023/10/10 08:15:20;;;;;;;6.57;4.83;;;;;;;14.94;100.00;101262.41;5075292;28;20230;-73
2023/10/10 08:17:55;;;;;;;8.87;5.83;;;;;;;15.07;100.00;101259.13;5075708;28;20213;-73
2023/10/10 08:20:34;;;;;;;8.33;6.23;;;;;;;15.12;100.00;101259.47;5075641;28;20186;-73
2023/10/10 08:23:04;;;;;;;8.60;6.07;;;;;;;15.15;100.00;101261.81;5075212;28;20217;-73
2023/10/10 08:25:33;;;;;;;11.23;6.53;;;;;;;15.16;100.00;101252.69;5075426;28;20263;-72
2023/10/10 08:28:03;;;;;;;9.60;7.37;;;;;;;15.18;100.00;101261.44;5075470;28;20284;-73
2023/10/10 08:30:33;;;;;;;10.53;6.40;;;;;;;15.20;100.00;101270.22;5075322;28;20321;-73
2023/10/10 08:33:02;;;;;;;9.53;7.10;;;;;;;15.22;100.00;101273.56;5075058;28;20217;-71
2023/10/10 08:35:38;;;;;;;9.13;6.17;;;;;;;15.23;100.00;101273.41;5074925;28;20225;-72
2023/10/10 08:38:07;;;;;;;12.63;11.23;;;;;;;15.26;100.00;101268.66;5075311;28;20288;-71
2023/10/10 08:40:40;;;;;;;10.40;6.60;;;;;;;15.29;100.00;101271.84;5074843;28;20255;-73
2023/10/10 08:43:11;;;;;;;12.77;6.53;;;;;;;15.33;100.00;101266.94;5075202;28;20554;-72
2023/10/10 08:45:43;;;;;;;8.03;6.53;;;;;;;15.36;100.00;101262.00;5075257;28;20257;-72
2023/10/10 08:48:13;;;;;;;12.43;6.90;;;;;;;15.41;100.00;101266.88;5075104;28;20277;-72
2023/10/10 08:50:44;;;;;;;10.47;7.40;;;;;;;15.40;100.00;101266.03;5074901;28;20226;-72
2023/10/10 08:53:14;;;;;;;12.70;7.57;;;;;;;15.41;100.00;101265.00;5074958;28;20214;-71
2023/10/10 08:55:43;;;;;;;12.40;7.70;;;;;;;15.43;100.00;101275.63;5074672;28;20587;-72
2023/10/10 08:58:13;;;;;;;9.50;7.33;;;;;;;15.48;100.00;101262.44;5074796;28;20288;-72
2023/10/10 09:00:42;;;;;;;11.60;7.70;;;;;;;15.52;100.00;101264.63;5074734;28;20247;-72
2023/10/10 09:03:14;;;;;;;13.37;8.10;;;;;;;15.54;100.00;101267.16;5074660;28;20201;-71
2023/10/10 09:05:42;;;;;;;12.70;8.27;;;;;;;15.54;100.00;101273.41;5074537;28;20698;-72
2023/10/10 09:08:16;;;;;;;10.10;7.67;;;;;;;15.58;100.00;101263.09;5074600;28;20205;-72
2023/10/10 09:10:46;;;;;;;16.30;8.97;;;;;;;15.63;100.00;101266.91;5074150;28;20579;-72
2023/10/10 09:13:16;;;;;;;10.33;7.70;;;;;;;15.68;100.00;101278.00;5074474;28;20219;-71
2023/10/10 09:15:56;;;;;;;10.30;8.00;;;;;;;15.73;100.00;101272.91;5074428;28;20257;-72
2023/10/10 09:18:25;;;;;;;13.80;7.67;;;;;;;15.76;100.00;101262.75;5074408;28;20236;-72
2023/10/10 09:21:10;;;;;;;11.33;8.00;;;;;;;15.78;100.00;101252.63;5073929;28;20782;-72
2023/10/10 09:23:42;;;;;;;13.30;8.60;;;;;;;15.80;100.00;101273.00;5074368;28;20255;-72
2023/10/10 09:26:19;;;;;;;14.97;8.30;;;;;;;15.80;100.00;101273.00;5073989;28;20562;-73
2023/10/10 09:28:55;;;;;;;11.60;8.33;;;;;;;15.80;100.00;101264.91;5073995;28;20189;-72
2023/10/10 09:31:31;;;;;;;9.63;7.60;;;;;;;15.83;100.00;101272.66;5074092;28;20214;-72
2023/10/10 09:34:03;;;;;;;11.97;8.10;;;;;;;15.88;100.00;101269.41;5074109;28;20229;-72
2023/10/10 09:36:38;;;;;;;9.77;8.03;;;;;;;15.86;99.91;101276.84;5074143;28;20276;-73
2023/10/10 09:39:25;;;;;;;9.83;8.23;;;;;;;15.88;99.31;101264.00;5074049;28;20193;-72
2023/10/10 09:42:06;;;;;;;9.57;7.70;;;;;;;15.92;100.00;101270.72;5073997;28;20189;-72
2023/10/10 09:44:53;;;;;;;9.37;7.00;;;;;;;15.90;100.00;101268.19;5073906;28;20243;-72
2023/10/10 09:47:41;;;;;;;10.57;7.40;;;;;;;15.94;100.00;101265.97;5073611;28;20204;-72
2023/10/10 09:50:34;;;;;;;13.07;8.00;;;;;;;15.96;99.93;101264.78;5074098;28;20248;-72
2023/10/10 09:53:06;;;;;;;12.43;8.00;;;;;;;15.98;99.78;101264.59;5073815;28;20217;-72
2023/10/10 09:55:42;;;;;;;12.03;7.83;;;;;;;16.01;100.00;101253.44;5073710;28;20229;-71
2023/10/10 09:58:24;;;;;;;12.00;6.90;;;;;;;16.07;100.00;101249.97;5073858;28;20207;-72
2023/10/10 10:01:04;;;;;;;8.93;6.90;;;;;;;16.12;98.73;101263.78;5073746;28;20217;-72
2023/10/10 10:03:36;;;;;;;11.80;7.40;;;;;;;16.15;99.70;101266.97;5073608;28;20193;-71
2023/10/10 10:10:00;;;;;;;8.67;6.87;;;;;;;16.23;97.67;101260.66;5012011;28;20214;-73
2023/10/10 10:12:45;;;;;;;11.57;7.57;;;;;;;16.26;97.13;101271.09;5073543;28;20217;-72
2023/10/10 10:15:39;;;;;;;12.77;7.83;;;;;;;16.27;97.10;101258.41;5073195;28;20790;-72
2023/10/10 10:18:13;;;;;;;9.07;7.20;;;;;;;16.28;96.57;101268.19;5073172;28;20277;-72
2023/10/10 10:20:47;;;;;;;11.43;6.80;;;;;;;16.26;97.21;101268.38;5073329;28;20280;-72
2023/10/10 10:23:25;;;;;;;9.57;7.43;;;;;;;16.27;96.78;101278.16;5073061;28;20712;-71
2023/10/10 10:26:04;;;;;;;8.87;6.67;;;;;;;16.33;96.54;101266.63;5073527;28;20185;-72
2023/10/10 10:28:36;;;;;;;11.23;6.97;;;;;;;16.40;96.75;101264.88;5073479;28;20193;-72
2023/10/10 10:31:08;;;;;;;10.90;6.80;;;;;;;16.49;97.15;101269.16;5073428;28;20199;-72
2023/10/10 10:33:52;;;;;;;8.97;6.43;;;;;;;16.59;95.37;101261.63;5073035;28;20289;-72
2023/10/10 10:36:27;;;;;;;8.87;6.80;;;;;;;16.76;95.36;101251.44;5072995;28;20567;-72
2023/10/10 10:41:51;;;;;;;8.57;7.47;;;;;;;16.94;94.48;101248.34;5077693;28;20276;-74
2023/10/10 10:44:46;;;;;;;8.73;6.63;;;;;;;16.98;95.14;101246.94;5077415;28;20737;-75
2023/10/10 10:47:53;;;;;;;7.70;6.33;;;;;;;17.07;92.31;101243.09;5077346;28;20193;-74
2023/10/10 10:50:42;;;;;;;10.70;7.03;;;;;;;17.08;89.92;101239.38;5076961;28;20189;-76
2023/10/10 10:53:33;;;;;;;7.73;6.10;;;;;;;17.28;91.28;101231.47;5077139;28;20613;-75
2023/10/10 11:01:51;;;;;;;10.90;7.20;;;;;;;17.74;88.31;101228.19;5077203;28;20189;-73
2023/10/10 11:04:42;;;;;;;11.27;5.90;;;;;;;17.93;86.47;101220.44;5076972;28;20240;-73
2023/10/10 11:07:26;;;;;;;7.03;5.70;;;;;;;18.04;86.58;101212.63;5076925;28;20560;-73
2023/10/10 11:10:06;;;;;;;11.93;6.10;;;;;;;18.24;86.80;101215.47;5077276;28;20193;-74
2023/10/10 11:12:36;;;;;;;8.03;5.83;;;;;;;18.33;85.16;101208.84;5077229;28;20610;-74
2023/10/10 11:15:10;;;;;;;10.33;6.70;;;;;;;18.40;85.04;101209.72;5077011;28;20257;-73
2023/10/10 11:17:39;;;;;;;10.83;6.27;;;;;;;18.38;84.01;101210.97;5076900;28;20201;-73
2023/10/10 11:20:50;;;;;;;7.77;6.40;;;;;;;18.43;84.71;101217.44;5076551;28;20624;-74
2023/10/10 11:23:20;;;;;;;10.40;6.80;;;;;;;18.51;84.54;101217.31;5076328;28;20206;-73
2023/10/10 11:26:00;;;;;;;11.97;8.30;;;;;;;18.45;81.96;101225.38;5076555;28;20638;-73
2023/10/10 11:28:37;;;;;;;12.43;8.27;;;;;;;18.41;83.24;101213.28;5076859;28;20189;-73
2023/10/10 11:31:07;;;;;;;12.50;7.93;;;;;;;18.37;84.40;101204.69;5076795;28;20197;-73
2023/10/10 11:33:55;;;;;;;13.93;8.47;;;;;;;18.35;84.61;101198.66;5076543;28;20294;-73
2023/10/10 11:36:37;;;;;;;12.57;9.00;;;;;;;18.34;84.60;101196.97;5076322;28;20194;-73
2023/10/10 11:39:31;;;;;;;11.07;8.97;;;;;;;18.34;84.36;101196.97;5076557;28;20288;-74
2023/10/10 11:42:03;;;;;;;10.80;9.17;;;;;;;18.35;83.91;101186.97;5076439;28;20280;-74
2023/10/10 11:44:33;;;;;;;12.20;9.00;;;;;;;18.36;82.40;101178.63;5076498;28;20571;-74
2023/10/10 11:47:07;;;;;;;12.70;10.03;;;;;;;18.37;81.89;101169.44;5076362;28;20196;-74
2023/10/10 11:49:37;;;;;;;12.80;9.40;;;;;;;18.38;82.53;101175.72;5075938;28;20224;-74
2023/10/10 11:52:16;;;;;;;11.03;8.87;;;;;;;18.38;81.88;101173.00;5075390;28;20225;-73
2023/10/10 11:54:46;;;;;;;13.50;10.27;;;;;;;18.36;82.10;101164.22;5075273;28;20317;-73
2023/10/10 11:57:15;;;;;;;10.37;9.27;;;;;;;18.36;84.25;101173.19;5076001;28;20233;-73
2023/10/10 11:59:46;;;;;;;13.07;11.77;;;;;;;18.33;84.17;101162.75;5075717;28;20214;-71
2023/10/10 12:02:18;;;;;;;9.70;8.63;;;;;;;18.37;84.39;101169.44;5076068;28;20186;-71
2023/10/10 12:04:47;;;;;;;11.83;10.33;;;;;;;18.37;82.17;101157.78;5076392;28;20317;-71
2023/10/10 12:07:18;;;;;;;12.00;10.37;;;;;;;18.38;82.04;101157.59;5075558;28;20209;-71
2023/10/10 12:09:48;;;;;;;11.53;10.03;;;;;;;18.37;81.05;101158.59;5075877;28;20196;-72
2023/10/10 12:12:17;;;;;;;11.80;9.87;;;;;;;18.36;81.97;101145.25;5075672;28;20236;-72
2023/10/10 12:14:50;;;;;;;11.57;9.50;;;;;;;18.36;83.90;101145.25;5075572;28;20221;-72
2023/10/10 12:17:20;;;;;;;13.67;11.03;;;;;;;18.33;83.63;101141.06;5075791;28;20205;-72
2023/10/10 12:19:49;;;;;;;12.03;10.53;;;;;;;18.31;84.66;101132.31;5075592;28;20201;-72
2023/10/10 12:22:17;;;;;;;15.13;12.87;;;;;;;18.25;86.55;101127.69;5075411;28;20304;-72
2023/10/10 12:24:47;;;;;;;13.93;12.53;;;;;;;18.20;86.55;101124.75;5075457;28;20229;-72
2023/10/10 12:27:16;;;;;;;15.27;12.60;;;;;;;18.18;88.03;101124.13;5075150;28;20296;-72
2023/10/10 12:29:47;;;;;;;14.13;12.33;;;;;;;18.13;85.92;101119.28;5075472;28;20283;-72
2023/10/10 12:32:18;;;;;;;15.90;13.63;;;;;;;18.14;86.42;101120.13;5075602;28;20300;-72
2023/10/10 12:34:48;;;;;;;18.67;14.03;;;;;;;18.14;86.84;101117.44;5075313;28;20270;-71
2023/10/10 12:37:17;;;;;;;16.60;13.77;;;;;;;18.17;87.23;101114.31;5075033;28;20686;-71
2023/10/10 12:39:49;;;;;;;15.57;13.70;;;;;;;18.21;88.69;101111.00;5075252;28;20202;-71
2023/10/10 12:42:17;;;;;;;18.67;14.87;;;;;;;18.23;90.02;101103.50;5075357;28;20190;-71
2023/10/10 12:44:47;;;;;;;16.40;14.70;;;;;;;18.24;89.98;101094.34;5075036;28;20221;-72
2023/10/10 12:47:19;;;;;;;15.87;14.13;;;;;;;18.29;89.96;101095.63;5074842;28;20185;-72
2023/10/10 12:49:48;;;;;;;18.27;15.20;;;;;;;18.49;89.54;101086.50;5075157;28;20280;-72
2023/10/10 12:52:18;;;;;;;17.87;14.70;;;;;;;18.64;90.12;101076.34;5074634;28;20690;-72
2023/10/10 12:54:57;;;;;;;19.60;14.80;;;;;;;18.68;87.68;101069.50;5074597;28;20776;-72
2023/10/10 12:57:32;;;;;;;17.73;14.97;;;;;;;18.77;87.02;101069.31;5074896;28;20200;-72
2023/10/10 13:02:44;;;;;;;18.57;13.60;;;;;;;18.83;88.03;101068.47;5073838;28;20189;-72
2023/10/10 13:05:12;;;;;;;22.10;14.70;;;;;;;18.97;86.79;101073.69;5074356;28;20648;-72
2023/10/10 13:07:43;;;;;;;20.37;15.10;;;;;;;19.09;86.35;101071.22;5074660;28;20255;-72
2023/10/10 13:10:13;;;;;;;19.23;14.03;;;;;;;19.18;85.77;101072.66;5074780;28;20229;-72
2023/10/10 13:12:45;;;;;;;20.60;14.83;;;;;;;19.18;84.41;101067.25;5074508;28;20225;-72
2023/10/10 13:15:18;;;;;;;19.20;15.20;;;;;;;19.34;83.11;101072.28;5074689;28;20229;-72
2023/10/10 13:18:11;;;;;;;18.37;14.50;;;;;;;19.41;82.55;101065.00;5074645;28;20189;-72
2023/10/10 13:20:41;;;;;;;20.67;13.57;;;;;;;19.41;83.17;101065.00;5074459;28;20288;-72
2023/10/10 13:23:10;;;;;;;17.70;13.07;;;;;;;19.55;81.03;101061.22;5074383;28;20213;-72
2023/10/10 13:25:39;;;;;;;18.17;13.47;;;;;;;19.76;80.47;101051.16;5074285;28;20257;-72
2023/10/10 13:28:09;;;;;;;19.07;13.63;;;;;;;19.94;79.68;101054.00;5074389;28;20293;-72
2023/10/10 13:30:39;;;;;;;15.07;12.87;;;;;;;20.03;79.54;101047.31;5074275;28;20233;-72
2023/10/10 13:33:08;;;;;;;18.03;12.60;;;;;;;20.11;79.09;101044.34;5074244;28;20236;-72
2023/10/10 13:35:37;;;;;;;18.40;13.13;;;;;;;20.01;77.68;101043.97;5074214;28;20257;-72
2023/10/10 13:38:08;;;;;;;19.00;12.80;;;;;;;19.99;78.43;101041.47;5074487;28;20208;-72
2023/10/10 13:40:43;;;;;;;18.37;14.10;;;;;;;19.98;79.27;101038.94;5074087;28;20647;-72
2023/10/10 13:43:16;;;;;;;20.10;12.37;;;;;;;19.89;79.09;101037.53;5074108;28;20182;-72
2023/10/10 13:45:47;;;;;;;17.60;13.67;;;;;;;19.77;79.49;101036.50;5073661;28;20707;-72
2023/10/10 13:48:18;;;;;;;18.70;13.43;;;;;;;19.71;79.56;101032.78;5073628;28;20193;-71
2023/10/10 13:50:51;;;;;;;19.37;14.20;;;;;;;19.68;80.61;101034.03;5074688;28;20193;-71
2023/10/10 13:53:20;;;;;;;17.50;13.47;;;;;;;19.65;80.38;101029.03;5074111;28;20214;-71
2023/10/10 13:55:50;;;;;;;19.07;13.77;;;;;;;19.68;81.28;101028.59;5073757;28;20221;-71
2023/10/10 13:58:20;;;;;;;16.00;13.73;;;;;;;19.67;80.67;101018.78;5073827;28;20210;-71
2023/10/10 14:00:55;;;;;;;16.53;12.63;;;;;;;19.81;80.67;101021.44;5073886;28;20229;-71